Ashton, Arkansas
Current Conditions -  °F | °C
As of 5:53 PM on Friday 31 Oct 2014 (Local Time) from KGLH Reporting Station
Few Clouds Few Clouds  
Wind Chill: 57°   Ceiling: Unl
Heat Index: 57°   Visibility: 10mi
Dew Point: 42°   Wind: 13mph
Humidity: 57%   Direction: 10°N
Pressure: 30.19"   Gusts: NA
Location:  33.3324°N, 91.3183°W
Report Text: KGLH 312253Z AUTO 01011KT 10SM FEW050 14/06 A3019 RMK AO2 SLP229 T01390056
Loading
Personal Weather Stations






























Interactive Weather Map
Tropical Storm Tracking
New forecast layout! Learn more

10-Day Weather Forecast

Advertisements
Track Severe Weather on mobile